Terminal Aerodrome Forecast
Issued by NWS Tampa Bay Area, FL

Home | Current Version | Previous Version | Text Only | Print | Product List | Glossary On
Versions: 1 2 3 4 5 6 7 8 9 10 11 12 13 14 15 16 17 18 19 20 21 22 23 24 25 26
000
FTUS42 KTBW 192104 AAA
TAFTPA
TAF AMD
KTPA 192104Z 1921/2018 19015KT P6SM SCT050 SCT090 SCT250
     FM192300 23007KT P6SM VCTS SCT040CB BKN150
      TEMPO 1923/2001 VRB20G30KT 5SM TSRA BKN035CB
     FM200200 20006KT P6SM SCT030 BKN150
     FM200800 20007KT P6SM VCSH SCT020 BKN080
     FM201500 23010KT P6SM VCSH SCT025 BKN040=

USA.gov is the U.S. government's official web portal to all federal, state and local government web resources and services.